Time;durP1;ratioP1;P1;durP2;ratioP2;P2;SDS_P1;SDS_P2;PMS_P1;PMS_P2;Temp;Humidity;BMP_temperature;BMP_pressure;BME280_temperature;BME280_humidity;BME280_pressure;Samples;Min_cycle;Max_cycle;Signal;HPM_P1;HPM_P2
2022/08/13 00:01:37;;;;;;;15.90;8.00;;;;;;;23.32;54.79;99668.13;5008428;28;20498;-27
2022/08/13 00:04:07;;;;;;;10.25;7.22;;;;;;;23.14;55.07;99664.50;5009550;28;20066;-27
2022/08/13 00:09:07;;;;;;;24.45;8.73;;;;;;;23.08;55.09;99665.75;5009748;28;20037;-28
2022/08/13 00:14:23;;;;;;;10.15;7.07;;;;;;;22.95;55.91;99662.00;5009520;28;20066;-35
2022/08/13 00:16:55;;;;;;;11.10;8.13;;;;;;;23.29;54.82;99657.84;5008092;28;20025;-27
2022/08/13 00:19:26;;;;;;;12.05;6.90;;;;;;;23.17;54.54;99666.63;5009771;28;20532;-32
2022/08/13 00:21:53;;;;;;;9.65;7.03;;;;;;;23.12;54.75;99658.59;5007733;28;20025;-28
2022/08/13 00:24:19;;;;;;;10.55;7.70;;;;;;;22.61;56.63;99657.94;5008138;28;20037;-27
2022/08/13 00:26:45;;;;;;;11.80;7.40;;;;;;;22.77;56.49;99666.50;5007671;28;20413;-31
2022/08/13 00:29:10;;;;;;;12.23;7.43;;;;;;;22.55;56.96;99659.16;5009186;28;20030;-29
2022/08/13 00:31:37;;;;;;;10.73;7.53;;;;;;;22.61;56.05;99622.59;5009478;28;20048;-33
2022/08/13 00:34:03;;;;;;;9.73;7.88;;;;;;;22.65;56.49;99637.16;5009135;28;21177;-27
2022/08/13 00:36:31;;;;;;;13.50;8.63;;;;;;;23.13;55.71;99646.59;5024194;28;20493;-28
2022/08/13 00:38:57;;;;;;;9.43;7.97;;;;;;;22.80;56.32;99655.03;5009425;28;20030;-27
2022/08/13 00:41:38;;;;;;;10.43;7.25;;;;;;;22.67;56.97;99653.16;5007861;28;20041;-28
2022/08/13 00:44:15;;;;;;;10.25;7.15;;;;;;;22.96;56.04;99665.50;5007506;28;20116;-29
2022/08/13 00:46:41;;;;;;;10.18;7.47;;;;;;;22.97;56.20;99648.09;5007668;28;20135;-28
2022/08/13 00:49:09;;;;;;;8.82;7.22;;;;;;;22.74;56.54;99656.28;5006910;28;20057;-31
2022/08/13 00:51:36;;;;;;;9.18;6.75;;;;;;;22.56;56.94;99659.97;5007840;28;20030;-29
2022/08/13 00:54:08;;;;;;;9.57;6.90;;;;;;;22.36;57.30;99642.25;5007131;28;20061;-27
2022/08/13 00:56:35;;;;;;;14.38;7.05;;;;;;;22.59;57.18;99660.16;5007856;28;20038;-28
2022/08/13 00:59:13;;;;;;;8.57;6.55;;;;;;;22.29;57.63;99650.81;5024001;28;20026;-29
2022/08/13 01:01:43;;;;;;;10.60;6.90;;;;;;;22.81;56.49;99659.34;5008909;28;20124;-28
2022/08/13 01:04:09;;;;;;;8.90;6.60;;;;;;;22.43;57.28;99665.16;5006895;28;20030;-30
2022/08/13 01:06:35;;;;;;;12.50;7.65;;;;;;;22.22;58.41;99670.22;5007098;28;20041;-31
2022/08/13 01:09:05;;;;;;;10.02;6.75;;;;;;;22.48;57.76;99647.13;5008383;28;20025;-27
2022/08/13 01:11:34;;;;;;;9.90;7.43;;;;;;;22.52;56.93;99661.72;5007126;28;20030;-28
2022/08/13 01:14:03;;;;;;;10.80;7.80;;;;;;;22.46;56.37;99661.81;5008578;28;20034;-34
2022/08/13 01:16:35;;;;;;;11.63;8.07;;;;;;;22.56;56.08;99659.97;5008845;28;20854;-27
2022/08/13 01:19:07;;;;;;;11.60;8.07;;;;;;;22.42;56.17;99641.81;5007983;28;20029;-28
2022/08/13 01:21:44;;;;;;;10.93;8.73;;;;;;;22.38;57.04;99648.97;5008598;28;20030;-28
2022/08/13 01:24:11;;;;;;;10.38;7.90;;;;;;;22.85;55.55;99652.16;5008189;28;20057;-29
2022/08/13 01:26:39;;;;;;;11.83;8.60;;;;;;;22.94;55.51;99629.66;5023402;28;20863;-28
2022/08/13 01:29:06;;;;;;;10.70;8.00;;;;;;;22.50;56.76;99653.88;5008016;28;20057;-28
2022/08/13 01:31:33;;;;;;;12.68;8.90;;;;;;;22.65;56.29;99658.13;5006661;28;20055;-30
2022/08/13 01:33:59;;;;;;;11.93;8.65;;;;;;;22.64;56.77;99646.44;5006590;28;20501;-29
2022/08/13 01:36:27;;;;;;;13.57;8.80;;;;;;;22.53;56.55;99636.13;5006928;28;20037;-30
2022/08/13 01:38:52;;;;;;;12.27;8.13;;;;;;;22.51;56.88;99641.88;5006734;28;20044;-29
2022/08/13 01:41:18;;;;;;;12.40;9.10;;;;;;;22.67;56.43;99645.03;5006670;28;20029;-31
2022/08/13 01:43:45;;;;;;;12.20;8.80;;;;;;;22.30;57.68;99646.19;5007779;28;20045;-29
2022/08/13 01:46:11;;;;;;;11.85;9.40;;;;;;;22.23;57.41;99630.28;5007516;28;20046;-28
2022/08/13 01:51:36;;;;;;;10.93;8.20;;;;;;;21.34;61.33;99640.53;5008125;28;20040;-28
2022/08/13 01:54:04;;;;;;;10.32;7.28;;;;;;;20.93;62.17;99606.06;5008067;28;20096;-28
2022/08/13 01:56:32;;;;;;;9.00;6.63;;;;;;;20.86;62.77;99633.56;5005939;28;20576;-27
2022/08/13 01:59:01;;;;;;;9.30;7.50;;;;;;;20.76;62.84;99612.06;5006354;28;20109;-29
2022/08/13 02:01:27;;;;;;;10.50;6.72;;;;;;;20.60;63.28;99613.41;5007604;28;20018;-28
2022/08/13 02:03:56;;;;;;;11.80;7.70;;;;;;;20.77;62.79;99624.50;5006081;28;20029;-27
2022/08/13 02:06:31;;;;;;;11.50;7.13;;;;;;;20.88;61.71;99625.09;5006007;28;20120;-28
2022/08/13 02:09:00;;;;;;;9.85;7.40;;;;;;;20.83;61.88;99617.88;5007135;28;20033;-30
2022/08/13 02:11:29;;;;;;;9.98;7.53;;;;;;;21.00;61.56;99627.34;5007517;28;20034;-28
2022/08/13 02:13:56;;;;;;;10.05;6.97;;;;;;;21.43;60.56;99629.81;5022498;28;20038;-30
2022/08/13 02:16:22;;;;;;;10.55;8.00;;;;;;;21.21;60.74;99614.22;5006208;28;20056;-27
2022/08/13 02:18:52;;;;;;;9.52;7.28;;;;;;;21.22;60.98;99616.63;5022611;28;20026;-27
2022/08/13 02:21:20;;;;;;;12.43;7.95;;;;;;;21.41;60.33;99621.97;5007436;28;20061;-29
2022/08/13 02:23:53;;;;;;;15.30;7.75;;;;;;;21.56;60.06;99634.44;5006248;28;20033;-30
2022/08/13 02:26:23;;;;;;;11.45;7.55;;;;;;;21.63;60.02;99634.81;5005873;28;20053;-30
2022/08/13 02:28:50;;;;;;;12.77;7.93;;;;;;;21.57;59.93;99638.75;5005770;28;20116;-32
2022/08/13 02:31:15;;;;;;;10.73;7.55;;;;;;;21.68;59.28;99636.66;5007177;28;20109;-28
2022/08/13 02:33:41;;;;;;;14.48;8.13;;;;;;;21.94;58.41;99634.19;5007201;28;20129;-36
2022/08/13 02:36:10;;;;;;;10.27;7.72;;;;;;;21.56;58.80;99623.59;5005536;28;20060;-30
2022/08/13 02:38:37;;;;;;;12.65;8.02;;;;;;;21.81;58.24;99630.38;5006897;28;20145;-27
2022/08/13 02:43:48;;;;;;;12.07;8.73;;;;;;;21.56;58.61;99620.88;5006819;28;20102;-29
2022/08/13 02:46:15;;;;;;;12.43;8.07;;;;;;;21.53;58.39;99618.75;5021759;28;20082;-32
2022/08/13 02:48:42;;;;;;;11.00;8.77;;;;;;;21.57;58.70;99627.91;5006412;28;20040;-29
2022/08/13 02:51:10;;;;;;;10.73;8.38;;;;;;;21.58;57.77;99615.94;5022042;28;20083;-28
2022/08/13 02:53:37;;;;;;;9.88;7.65;;;;;;;21.47;57.84;99609.13;5005517;28;20060;-28
2022/08/13 02:56:05;;;;;;;12.93;8.93;;;;;;;21.63;57.79;99639.47;5006719;28;20097;-27
2022/08/13 02:58:31;;;;;;;12.68;8.57;;;;;;;21.57;57.43;99627.91;5007004;28;20034;-30
2022/08/13 03:00:58;;;;;;;14.82;8.77;;;;;;;21.46;57.97;99637.38;5006778;28;20062;-30
2022/08/13 03:03:26;;;;;;;21.95;9.65;;;;;;;21.50;57.47;99641.09;5005645;28;20116;-29
2022/08/13 03:05:52;;;;;;;15.77;9.48;;;;;;;21.42;57.00;99628.19;5006885;28;20045;-32
2022/08/13 03:08:18;;;;;;;22.05;9.55;;;;;;;21.46;57.29;99645.50;5006692;28;20110;-28
2022/08/13 03:10:45;;;;;;;15.30;8.68;;;;;;;21.24;57.78;99646.16;5005003;28;20122;-31
2022/08/13 03:13:19;;;;;;;15.25;8.75;;;;;;;21.40;57.48;99642.06;5005430;28;20417;-27
2022/08/13 03:15:46;;;;;;;12.88;7.88;;;;;;;21.35;57.28;99636.75;5005478;28;20469;-27
2022/08/13 03:18:12;;;;;;;15.65;8.80;;;;;;;21.31;57.67;99654.72;5005342;28;20038;-28
2022/08/13 03:20:40;;;;;;;12.15;8.30;;;;;;;21.17;58.39;99653.91;5006594;28;20026;-32
2022/08/13 03:23:07;;;;;;;12.38;8.82;;;;;;;21.20;58.73;99643.22;5005590;28;20037;-27
2022/08/13 03:25:32;;;;;;;13.70;8.52;;;;;;;21.35;57.53;99638.63;5005265;28;20042;-27
2022/08/13 03:27:58;;;;;;;17.63;8.77;;;;;;;21.51;57.16;99650.00;5006653;28;20014;-30
2022/08/13 03:30:26;;;;;;;15.00;9.05;;;;;;;21.61;57.01;99658.75;5006764;28;20482;-31
2022/08/13 03:32:54;;;;;;;13.68;9.10;;;;;;;21.12;58.61;99656.69;5007107;28;20419;-27
2022/08/13 03:35:24;;;;;;;16.05;9.02;;;;;;;21.02;59.15;99649.53;5005182;28;20458;-28
2022/08/13 03:37:55;;;;;;;16.23;9.02;;;;;;;20.83;60.19;99644.97;5021475;28;20033;-28
2022/08/13 03:40:23;;;;;;;14.52;9.05;;;;;;;20.89;60.15;99644.91;5021563;28;20493;-28
2022/08/13 03:42:49;;;;;;;17.83;9.18;;;;;;;21.37;58.07;99647.25;5004943;28;20033;-27
2022/08/13 03:45:16;;;;;;;15.98;9.15;;;;;;;21.42;57.77;99660.75;5004809;28;20034;-32
2022/08/13 03:47:42;;;;;;;16.45;10.07;;;;;;;21.13;60.03;99669.97;5006876;28;20029;-33
2022/08/13 03:50:10;;;;;;;15.05;9.02;;;;;;;20.70;61.86;99637.63;5021303;28;20041;-27
2022/08/13 03:52:36;;;;;;;15.30;9.25;;;;;;;20.81;61.69;99643.69;5004944;28;20025;-29
2022/08/13 03:55:11;;;;;;;16.13;8.75;;;;;;;20.94;60.62;99655.66;5006384;28;20030;-29
2022/08/13 03:57:41;;;;;;;20.45;9.75;;;;;;;21.19;60.58;99670.66;5006507;28;20033;-27
2022/08/13 04:00:11;;;;;;;26.33;10.15;;;;;;;21.42;57.73;99637.16;5021350;28;20120;-28
2022/08/13 04:02:41;;;;;;;29.95;10.38;;;;;;;21.60;57.88;99670.72;5006323;28;20026;-29
2022/08/13 04:05:13;;;;;;;16.30;9.32;;;;;;;21.64;57.89;99674.44;5004858;28;20057;-28
2022/08/13 04:07:39;;;;;;;17.67;9.82;;;;;;;21.80;58.00;99676.81;5005805;28;20036;-27
2022/08/13 04:10:06;;;;;;;16.60;9.15;;;;;;;21.87;57.81;99661.75;5006318;28;20033;-31
2022/08/13 04:12:31;;;;;;;17.20;10.55;;;;;;;21.96;57.25;99677.31;5004633;28;20456;-27
2022/08/13 04:14:57;;;;;;;18.52;11.70;;;;;;;22.05;57.44;99668.16;5006318;28;20030;-27
2022/08/13 04:17:22;;;;;;;28.30;11.82;;;;;;;22.32;57.84;99671.13;5005960;28;20026;-29
2022/08/13 04:19:48;;;;;;;34.60;11.13;;;;;;;22.48;57.27;99687.91;5004596;28;20033;-30
2022/08/13 04:22:13;;;;;;;17.98;11.30;;;;;;;22.25;58.44;99693.25;5004530;28;20029;-28
2022/08/13 04:24:39;;;;;;;13.88;10.82;;;;;;;21.95;59.57;99670.28;5008124;28;20038;-27
2022/08/13 04:27:05;;;;;;;17.20;11.45;;;;;;;21.86;61.24;99664.75;5025148;28;20030;-29
2022/08/13 04:29:31;;;;;;;17.08;11.70;;;;;;;21.96;61.83;99685.47;5024469;28;20030;-30
2022/08/13 04:32:00;;;;;;;18.90;11.02;;;;;;;21.99;60.97;99682.94;5024523;28;20116;-29
2022/08/13 04:34:28;;;;;;;16.30;10.55;;;;;;;21.88;60.66;99670.69;5009474;28;20095;-34
2022/08/13 04:36:54;;;;;;;19.80;10.38;;;;;;;21.73;61.52;99665.59;5024243;28;20493;-28
2022/08/13 04:39:19;;;;;;;17.95;9.90;;;;;;;21.85;61.19;99671.31;5009571;28;20026;-28
2022/08/13 04:41:45;;;;;;;15.63;9.25;;;;;;;21.96;61.01;99680.03;5009723;28;20032;-33
2022/08/13 04:44:11;;;;;;;18.60;9.88;;;;;;;22.04;60.27;99682.81;5024312;28;20879;-27
2022/08/13 04:46:38;;;;;;;13.75;9.63;;;;;;;21.90;61.08;99683.97;5007475;28;20773;-29
2022/08/13 04:49:04;;;;;;;21.60;10.63;;;;;;;21.97;61.32;99681.66;5007744;28;20092;-28
2022/08/13 04:51:31;;;;;;;16.75;10.15;;;;;;;22.20;60.58;99685.22;5024101;28;20113;-28
2022/08/13 04:53:57;;;;;;;17.70;9.93;;;;;;;22.52;60.10;99675.31;5007668;28;20033;-29
2022/08/13 04:56:22;;;;;;;17.15;10.25;;;;;;;22.57;59.72;99667.00;5009262;28;20261;-29
2022/08/13 04:58:48;;;;;;;17.30;10.02;;;;;;;22.49;60.51;99673.19;5009097;28;20030;-28
2022/08/13 05:01:13;;;;;;;18.20;10.75;;;;;;;22.60;60.39;99663.69;5009028;28;20033;-27
2022/08/13 05:03:41;;;;;;;16.23;10.35;;;;;;;23.03;59.16;99668.63;5008931;28;20026;-29
2022/08/13 05:06:17;;;;;;;16.40;10.25;;;;;;;22.92;59.30;99650.94;5006869;28;20052;-33
2022/08/13 05:08:43;;;;;;;17.67;10.63;;;;;;;23.10;59.12;99654.56;5008936;28;20032;-35
2022/08/13 05:11:12;;;;;;;14.32;10.65;;;;;;;23.16;59.62;99656.84;5007445;28;20034;-28
2022/08/13 05:13:39;;;;;;;15.98;11.18;;;;;;;22.89;59.89;99657.00;5007581;28;20092;-30
2022/08/13 05:16:07;;;;;;;16.38;11.32;;;;;;;22.81;60.95;99664.78;5007135;28;20025;-30
2022/08/13 05:18:34;;;;;;;19.65;12.73;;;;;;;22.82;60.54;99641.94;5008424;28;20096;-28
2022/08/13 05:21:03;;;;;;;18.23;11.50;;;;;;;23.15;59.89;99654.44;5024023;28;20037;-28
2022/08/13 05:23:30;;;;;;;16.02;12.20;;;;;;;23.11;60.50;99654.28;5023672;28;20265;-28
2022/08/13 05:25:58;;;;;;;21.65;12.50;;;;;;;23.40;59.47;99644.78;5023446;28;20493;-32
2022/08/13 05:28:24;;;;;;;16.83;11.63;;;;;;;23.64;59.17;99639.75;5023471;28;20038;-27
2022/08/13 05:30:49;;;;;;;15.75;11.60;;;;;;;23.78;59.25;99658.69;5008313;28;20041;-28
2022/08/13 05:33:21;;;;;;;17.25;12.65;;;;;;;24.15;57.41;99663.84;5007021;28;20112;-30
2022/08/13 05:35:52;;;;;;;18.58;11.50;;;;;;;24.38;56.29;99654.41;5008142;28;20030;-37
2022/08/13 05:38:23;;;;;;;16.33;11.63;;;;;;;24.63;56.28;99649.28;5023099;28;20037;-31
2022/08/13 05:40:54;;;;;;;16.85;12.88;;;;;;;24.57;56.60;99650.59;5006844;28;20124;-28
2022/08/13 05:43:26;;;;;;;15.73;11.88;;;;;;;24.86;55.88;99649.88;5022976;28;20187;-28
2022/08/13 05:45:57;;;;;;;16.20;12.40;;;;;;;25.13;55.85;99643.25;5006394;28;20057;-28
2022/08/13 05:48:25;;;;;;;17.25;12.30;;;;;;;24.98;55.97;99630.13;5007997;28;20026;-30
2022/08/13 05:50:51;;;;;;;;;;;;;;;25.15;57.42;99641.00;4991152;28;20034;-29
2022/08/13 05:53:17;;;;;;;17.00;12.20;;;;;;;25.10;57.16;99637.63;5007824;28;19932;-28
2022/08/13 05:55:42;;;;;;;17.55;11.98;;;;;;;25.32;56.95;99644.81;5007877;28;20069;-28
2022/08/13 05:58:10;;;;;;;16.83;12.68;;;;;;;25.46;55.85;99648.13;5007576;28;20034;-32
2022/08/13 06:03:27;;;;;;;15.45;11.80;;;;;;;25.29;55.85;99624.41;5007719;28;20104;-27
2022/08/13 06:06:16;;;;;;;16.23;12.07;;;;;;;25.42;57.01;99644.44;5007920;28;20076;-32
2022/08/13 06:08:43;;;;;;;22.08;11.70;;;;;;;25.43;56.79;99651.50;5007429;28;20033;-28
2022/08/13 06:11:17;;;;;;;17.25;12.43;;;;;;;25.54;54.98;99640.97;5006626;28;20096;-28
2022/08/13 06:13:45;;;;;;;16.15;12.23;;;;;;;25.47;55.99;99636.06;5007756;28;20034;-27
2022/08/13 06:16:13;;;;;;;18.70;12.60;;;;;;;25.41;55.49;99651.00;5005822;28;20037;-29
2022/08/13 06:18:43;;;;;;;17.40;12.52;;;;;;;25.38;56.32;99644.28;5006090;28;20413;-28
2022/08/13 06:21:12;;;;;;;15.38;12.13;;;;;;;25.16;57.28;99636.31;5006000;28;20033;-30
2022/08/13 06:23:39;;;;;;;14.25;11.43;;;;;;;25.40;56.60;99641.25;5005942;28;20026;-28
2022/08/13 06:26:10;;;;;;;16.67;11.68;;;;;;;25.41;56.44;99653.75;5007200;28;20032;-29
2022/08/13 06:28:36;;;;;;;31.45;22.15;;;;;;;25.31;56.93;99648.66;5007191;28;20037;-28
2022/08/13 06:31:05;;;;;;;23.50;14.95;;;;;;;25.41;55.88;99642.81;5007261;28;20109;-28
2022/08/13 06:33:33;;;;;;;194.20;162.60;;;;;;;25.09;57.24;99628.66;5005494;28;20026;-28
2022/08/13 06:36:01;;;;;;;19.33;12.80;;;;;;;25.39;56.72;99623.25;5022001;28;20380;-29
2022/08/13 06:38:29;;;;;;;99.95;76.40;;;;;;;25.59;54.97;99640.81;5005972;28;20030;-29
2022/08/13 06:40:59;;;;;;;126.53;70.65;;;;;;;25.59;54.69;99630.69;5005435;28;20493;-31
2022/08/13 06:43:28;;;;;;;24.38;17.08;;;;;;;25.94;54.47;99629.69;5022139;28;20464;-27
2022/08/13 06:45:55;;;;;;;16.48;12.80;;;;;;;26.06;53.67;99629.75;5020742;28;20157;-33
2022/08/13 06:48:22;;;;;;;15.73;11.88;;;;;;;26.10;52.41;99641.63;5022258;28;20125;-27
2022/08/13 06:50:50;;;;;;;15.73;11.75;;;;;;;25.86;53.94;99634.06;5007156;28;20515;-35
2022/08/13 06:53:16;;;;;;;17.48;12.48;;;;;;;25.91;53.19;99619.41;5022200;28;20026;-34
2022/08/13 06:55:43;;;;;;;15.50;12.10;;;;;;;25.90;53.10;99615.09;5005346;28;20483;-27
2022/08/13 06:58:10;;;;;;;16.25;12.85;;;;;;;25.99;53.50;99624.84;5005222;28;20029;-28
2022/08/13 07:00:38;;;;;;;16.77;12.25;;;;;;;26.23;51.10;99628.81;5021531;28;20127;-32
2022/08/13 07:03:06;;;;;;;13.95;10.95;;;;;;;26.33;52.34;99633.88;5005517;28;20828;-28
2022/08/13 07:05:36;;;;;;;15.05;11.85;;;;;;;26.55;50.06;99629.19;5021788;28;20143;-29
2022/08/13 07:08:04;;;;;;;15.18;10.65;;;;;;;26.79;50.03;99628.50;5006669;28;20064;-29
2022/08/13 07:10:32;;;;;;;14.18;11.75;;;;;;;26.81;51.81;99624.28;5005345;28;20061;-33
2022/08/13 07:12:59;;;;;;;15.48;11.55;;;;;;;26.78;51.64;99611.25;5021517;28;20034;-36
2022/08/13 07:15:25;;;;;;;14.43;10.93;;;;;;;26.92;50.64;99604.69;5005416;28;20603;-29
2022/08/13 07:17:51;;;;;;;14.55;11.43;;;;;;;26.99;49.08;99610.38;5006532;28;20038;-28
2022/08/13 07:20:18;;;;;;;17.70;10.68;;;;;;;27.09;49.52;99599.00;5005262;28;20068;-30
2022/08/13 07:22:44;;;;;;;12.82;10.43;;;;;;;27.24;48.50;99612.03;5021316;28;20492;-31
2022/08/13 07:25:10;;;;;;;12.48;10.30;;;;;;;27.45;49.33;99605.66;5005318;28;20569;-31
2022/08/13 07:27:40;;;;;;;70.80;50.60;;;;;;;27.82;47.45;99619.28;5004824;28;20406;-31
2022/08/13 07:30:14;;;;;;;60.92;39.80;;;;;;;28.31;46.07;99618.38;5004959;28;20465;-32
2022/08/13 07:32:40;;;;;;;26.45;18.17;;;;;;;28.30;46.85;99616.75;5006436;28;20115;-28
2022/08/13 07:35:08;;;;;;;1253.93;760.10;;;;;;;28.03;46.85;99619.16;5021669;28;20032;-28
2022/08/13 07:37:35;;;;;;;472.30;285.80;;;;;;;28.29;47.26;99609.69;5006502;28;20084;-31
2022/08/13 07:40:01;;;;;;;91.13;54.42;;;;;;;28.53;45.50;99606.88;5021154;28;20575;-29
2022/08/13 07:42:28;;;;;;;23.70;15.25;;;;;;;28.35;45.64;99609.09;5006240;28;20493;-30
2022/08/13 07:44:53;;;;;;;14.73;11.37;;;;;;;28.23;45.33;99601.72;5021381;28;20029;-29
2022/08/13 07:47:21;;;;;;;23.25;16.85;;;;;;;28.40;46.10;99595.16;5006011;28;20050;-31
2022/08/13 07:49:48;;;;;;;139.25;72.07;;;;;;;28.71;45.63;99587.31;5021204;28;20033;-29
2022/08/13 07:52:14;;;;;;;34.70;20.53;;;;;;;28.89;45.53;99582.31;5004946;28;20417;-28
2022/08/13 07:54:46;;;;;;;494.73;273.33;;;;;;;29.09;45.06;99580.44;5004536;28;20767;-30
2022/08/13 07:57:12;;;;;;;589.35;357.20;;;;;;;29.47;44.99;99585.28;5007661;28;20064;-31
2022/08/13 07:59:37;;;;;;;89.10;49.25;;;;;;;29.74;44.43;99589.06;5009778;28;20421;-28
2022/08/13 08:02:11;;;;;;;24.85;17.42;;;;;;;29.94;42.08;99587.13;5008441;28;20037;-29
2022/08/13 08:04:37;;;;;;;15.18;12.30;;;;;;;29.78;42.16;99581.69;5009934;28;20065;-28
2022/08/13 08:07:03;;;;;;;21.40;14.23;;;;;;;29.98;41.67;99592.69;5009737;28;20068;-33
2022/08/13 08:09:30;;;;;;;16.17;11.30;;;;;;;30.25;42.91;99579.88;4992077;28;20501;-30
2022/08/13 08:14:44;;;;;;;25.38;14.25;;;;;;;30.49;43.35;99567.78;5009938;28;20048;-28
2022/08/13 08:17:11;;;;;;;517.47;260.48;;;;;;;30.65;41.36;99586.94;5008371;28;20038;-32
2022/08/13 08:19:41;;;;;;;152.90;78.97;;;;;;;30.69;42.27;99571.28;5024709;28;20034;-28
2022/08/13 08:22:10;;;;;;;17.50;12.98;;;;;;;30.31;41.83;99567.44;5008403;28;20283;-33
2022/08/13 08:24:37;;;;;;;16.70;12.40;;;;;;;30.61;42.92;99575.06;5024878;28;20061;-36
2022/08/13 08:27:05;;;;;;;17.20;11.83;;;;;;;30.88;41.69;99573.19;5024854;28;20030;-28
2022/08/13 08:29:33;;;;;;;17.30;11.88;;;;;;;30.96;40.16;99579.63;5007996;28;20034;-33
2022/08/13 08:32:07;;;;;;;;;;;;;;;30.84;42.07;99570.34;5007994;28;20037;-29
2022/08/13 08:34:34;;;;;;;17.35;11.57;;;;;;;30.74;40.72;99568.22;5024751;28;19963;-32
2022/08/13 08:37:00;;;;;;;125.97;63.72;;;;;;;30.69;42.03;99549.28;4991870;28;20037;-33
2022/08/13 08:43:00;;;;;;;16.58;11.85;;;;;;;30.28;41.34;99550.84;5009251;28;20116;-29
2022/08/13 08:45:00;;;;;;;661.72;420.50;;;;;;;30.01;42.91;99543.25;5008020;28;20444;-31
2022/08/13 08:47:31;;;;;;;25.40;17.27;;;;;;;30.39;42.31;99552.66;5009424;28;20077;-29
2022/08/13 08:49:59;;;;;;;17.67;11.65;;;;;;;30.24;41.15;99557.09;5024044;28;20034;-32
2022/08/13 08:53:19;;;;;;;14.82;11.32;;;;;;;30.11;41.44;99549.34;5009208;28;20061;-30
2022/08/13 08:55:15;;;;;;;15.07;10.80;;;;;;;30.32;42.57;99538.78;5009045;28;20026;-29
2022/08/13 08:57:41;;;;;;;;;;;;;;;30.55;40.59;99549.81;5008270;28;20033;-29
2022/08/13 09:00:14;;;;;;;14.93;11.60;;;;;;;30.58;41.20;99538.06;5023977;28;19913;-36
2022/08/13 09:02:40;;;;;;;15.30;10.95;;;;;;;30.73;40.83;99541.06;5008859;28;20277;-28
2022/08/13 09:05:12;;;;;;;15.98;10.45;;;;;;;30.66;40.51;99527.19;5023850;28;20394;-28
2022/08/13 09:07:40;;;;;;;14.57;10.70;;;;;;;30.48;39.85;99511.16;5007294;28;20409;-32
2022/08/13 09:10:06;;;;;;;17.67;12.93;;;;;;;30.77;39.89;99520.69;5008002;28;20025;-28
2022/08/13 09:12:32;;;;;;;12.93;10.52;;;;;;;30.74;40.37;99506.88;5023955;28;20037;-28
2022/08/13 09:14:58;;;;;;;12.82;10.38;;;;;;;31.02;39.43;99520.31;5023829;28;20438;-30
2022/08/13 09:17:26;;;;;;;14.75;10.35;;;;;;;31.38;39.54;99512.56;5007200;28;20069;-28
2022/08/13 09:19:51;;;;;;;96.90;51.50;;;;;;;31.67;39.52;99518.47;5023492;28;20033;-31
2022/08/13 09:22:22;;;;;;;15.05;10.88;;;;;;;31.72;38.67;99507.13;5008154;28;20030;-28
2022/08/13 09:24:48;;;;;;;16.50;11.30;;;;;;;31.56;37.63;99508.09;5023694;28;20041;-33
2022/08/13 09:27:18;;;;;;;15.70;11.18;;;;;;;31.56;36.25;99508.09;5008439;28;20030;-32
2022/08/13 09:29:45;;;;;;;12.05;10.18;;;;;;;31.49;37.74;99501.69;5008216;28;20026;-31
2022/08/13 09:32:13;;;;;;;15.32;10.15;;;;;;;32.02;36.78;99496.88;5008386;28;20034;-28
2022/08/13 09:34:44;;;;;;;13.20;10.00;;;;;;;32.07;35.42;99483.91;5008589;28;20038;-30
2022/08/13 09:37:12;;;;;;;13.73;10.18;;;;;;;32.23;35.92;99492.75;5008614;28;20108;-29
2022/08/13 09:39:51;;;;;;;14.20;10.52;;;;;;;32.37;34.31;99495.63;5008407;28;20029;-29
2022/08/13 09:42:24;;;;;;;14.75;9.73;;;;;;;32.42;33.86;99489.75;5023487;28;20022;-29
2022/08/13 09:45:00;;;;;;;14.27;9.40;;;;;;;32.23;33.79;99487.22;5006581;28;20021;-32
2022/08/13 09:47:26;;;;;;;12.18;9.40;;;;;;;32.37;33.89;99479.09;5007762;28;20111;-29
2022/08/13 09:49:52;;;;;;;16.13;10.20;;;;;;;32.29;33.55;99469.16;5006603;28;20026;-28
2022/08/13 09:52:22;;;;;;;13.02;9.85;;;;;;;32.09;33.83;99474.06;5006683;28;20856;-35
2022/08/13 09:54:49;;;;;;;13.85;9.77;;;;;;;31.73;34.65;99472.88;5006677;28;20087;-28
2022/08/13 09:57:14;;;;;;;15.63;9.97;;;;;;;32.35;33.96;99473.16;5006609;28;20034;-30
2022/08/13 09:59:40;;;;;;;12.02;9.30;;;;;;;32.32;33.42;99457.34;5006288;28;20045;-31
2022/08/13 10:02:12;;;;;;;79.00;43.20;;;;;;;32.51;34.50;99461.03;5007655;28;20517;-33
2022/08/13 10:04:39;;;;;;;71.43;34.03;;;;;;;32.55;32.50;99464.66;5007733;28;20074;-30
2022/08/13 10:07:07;;;;;;;;;;;;;;;32.38;33.18;99457.78;5023075;28;20086;-29
2022/08/13 10:09:34;;;;;;;31.20;18.45;;;;;;;32.64;32.03;99443.03;5006022;28;19918;-33
2022/08/13 10:12:05;;;;;;;42.90;25.85;;;;;;;33.01;32.31;99444.88;5005906;28;20029;-30
2022/08/13 10:14:31;;;;;;;20.88;13.65;;;;;;;33.25;31.70;99450.94;5007515;28;20022;-32
2022/08/13 10:16:57;;;;;;;108.63;60.95;;;;;;;33.32;31.22;99453.72;5022779;28;20120;-29
2022/08/13 10:19:23;;;;;;;14.13;11.47;;;;;;;33.65;31.05;99427.81;5022528;28;20029;-29
2022/08/13 10:21:49;;;;;;;13.05;8.95;;;;;;;33.65;30.02;99451.91;5022216;28;20076;-31
2022/08/13 10:24:14;;;;;;;11.63;8.73;;;;;;;34.07;29.81;99440.16;5007239;28;20053;-32
2022/08/13 10:26:40;;;;;;;34.65;19.75;;;;;;;33.93;31.04;99438.16;5007342;28;20026;-29
2022/08/13 10:29:08;;;;;;;25.70;15.55;;;;;;;34.16;30.07;99437.84;5007237;28;20869;-31
2022/08/13 10:31:35;;;;;;;47.17;24.55;;;;;;;33.68;30.01;99420.72;5007417;28;20061;-36
2022/08/13 10:34:03;;;;;;;15.07;10.10;;;;;;;34.26;29.43;99432.69;5022115;28;20057;-31
2022/08/13 10:36:31;;;;;;;10.73;8.65;;;;;;;34.42;28.64;99425.56;5022243;28;20034;-33
2022/08/13 10:38:57;;;;;;;12.90;9.40;;;;;;;34.94;28.86;99429.84;5005790;28;20036;-28
2022/08/13 10:41:23;;;;;;;11.50;8.77;;;;;;;34.83;28.52;99426.34;5005527;28;20165;-29
2022/08/13 10:43:49;;;;;;;14.40;10.02;;;;;;;35.22;28.13;99423.47;5005652;28;20029;-38
2022/08/13 10:46:20;;;;;;;13.57;9.70;;;;;;;35.28;28.26;99418.31;5006796;28;20056;-29
2022/08/13 10:48:55;;;;;;;14.35;9.00;;;;;;;35.18;28.49;99417.94;5007029;28;20022;-31
2022/08/13 10:51:23;;;;;;;11.43;9.68;;;;;;;35.21;27.59;99414.38;5005640;28;20576;-28
2022/08/13 10:54:00;;;;;;;12.27;9.52;;;;;;;34.64;28.15;99410.91;5005134;28;20041;-33
2022/08/13 10:56:30;;;;;;;12.32;8.40;;;;;;;34.49;28.43;99386.03;5006925;28;20091;-29
2022/08/13 10:58:59;;;;;;;18.85;13.73;;;;;;;34.78;29.30;99397.84;5006357;28;20025;-31
2022/08/13 11:01:26;;;;;;;41.15;24.30;;;;;;;34.80;30.31;99389.94;5021725;28;20030;-33
2022/08/13 11:03:57;;;;;;;;;;;;;;;35.08;30.51;99393.78;5022192;28;20109;-31
2022/08/13 11:06:27;;;;;;;19.67;13.27;;;;;;;34.74;29.53;99390.75;5021490;28;20059;-29
2022/08/13 11:08:54;;;;;;;18.98;11.85;;;;;;;35.05;28.61;99383.53;5006921;28;20053;-31
2022/08/13 11:11:21;;;;;;;23.05;15.38;;;;;;;35.05;29.52;99388.28;5022116;28;20553;-36
2022/08/13 11:13:46;;;;;;;64.00;43.57;;;;;;;34.52;28.96;99390.75;5006746;28;20022;-33
2022/08/13 11:18:59;;;;;;;16.10;10.55;;;;;;;34.35;29.37;99386.81;5006634;28;20038;-30
2022/08/13 11:21:25;;;;;;;12.95;8.10;;;;;;;34.54;29.34;99370.97;5021908;28;20100;-30
2022/08/13 11:23:52;;;;;;;12.93;9.73;;;;;;;34.57;27.86;99372.94;5005288;28;20072;-29
2022/08/13 11:26:18;;;;;;;14.85;9.25;;;;;;;34.53;27.08;99363.84;5005623;28;20021;-29
2022/08/13 11:28:43;;;;;;;12.63;7.50;;;;;;;34.46;26.51;99363.88;5006343;28;20026;-33
2022/08/13 11:31:09;;;;;;;11.25;8.20;;;;;;;34.28;27.64;99353.59;5006808;28;20029;-33
2022/08/13 11:33:34;;;;;;;31.35;20.40;;;;;;;34.36;27.73;99365.47;5009757;28;20072;-32
2022/08/13 11:35:59;;;;;;;10.27;8.38;;;;;;;34.80;26.72;99356.69;5010613;28;20025;-28
2022/08/13 11:38:25;;;;;;;14.07;10.63;;;;;;;34.79;26.33;99355.09;5010659;28;20030;-30
2022/08/13 11:40:53;;;;;;;11.05;8.32;;;;;;;35.09;25.45;99355.81;5010927;28;20034;-33
2022/08/13 11:43:24;;;;;;;21.13;14.05;;;;;;;35.64;24.80;99352.38;5009103;28;20129;-29
2022/08/13 11:45:50;;;;;;;10.10;7.13;;;;;;;35.70;26.41;99358.31;5008730;28;20053;-31
2022/08/13 11:48:17;;;;;;;21.98;13.05;;;;;;;35.66;25.13;99354.78;5010216;28;20037;-30